sensor_id;sensor_type;location;lat;lon;timestamp;temperature;humidity
47779;DHT22;33538;48.432;11.350;2023-05-16T00:01:28;12.60;95.50
47779;DHT22;33538;48.432;11.350;2023-05-16T00:03:55;12.60;95.30
47779;DHT22;33538;48.432;11.350;2023-05-16T00:06:22;12.70;95.30
47779;DHT22;33538;48.432;11.350;2023-05-16T00:08:50;12.70;95.40
47779;DHT22;33538;48.432;11.350;2023-05-16T00:11:16;12.70;95.60
47779;DHT22;33538;48.432;11.350;2023-05-16T00:13:43;12.60;95.70
47779;DHT22;33538;48.432;11.350;2023-05-16T00:16:10;12.60;95.70
47779;DHT22;33538;48.432;11.350;2023-05-16T00:18:37;12.60;96.20
47779;DHT22;33538;48.432;11.350;2023-05-16T00:21:04;12.60;96.10
47779;DHT22;33538;48.432;11.350;2023-05-16T00:23:31;12.50;95.90
47779;DHT22;33538;48.432;11.350;2023-05-16T00:25:59;12.50;95.90
47779;DHT22;33538;48.432;11.350;2023-05-16T00:28:26;12.60;95.30
47779;DHT22;33538;48.432;11.350;2023-05-16T00:30:53;12.60;95.60
47779;DHT22;33538;48.432;11.350;2023-05-16T00:33:19;12.50;95.50
47779;DHT22;33538;48.432;11.350;2023-05-16T00:35:46;12.50;95.60
47779;DHT22;33538;48.432;11.350;2023-05-16T00:38:13;12.60;95.50
47779;DHT22;33538;48.432;11.350;2023-05-16T00:40:40;12.60;95.60
47779;DHT22;33538;48.432;11.350;2023-05-16T00:43:08;12.60;95.70
47779;DHT22;33538;48.432;11.350;2023-05-16T00:45:34;12.50;95.70
47779;DHT22;33538;48.432;11.350;2023-05-16T00:48:01;12.50;95.90
47779;DHT22;33538;48.432;11.350;2023-05-16T00:50:28;12.50;95.50
47779;DHT22;33538;48.432;11.350;2023-05-16T00:52:55;12.50;95.20
47779;DHT22;33538;48.432;11.350;2023-05-16T00:55:22;12.50;95.00
47779;DHT22;33538;48.432;11.350;2023-05-16T00:57:49;12.50;95.10
47779;DHT22;33538;48.432;11.350;2023-05-16T01:00:18;12.50;94.70
47779;DHT22;33538;48.432;11.350;2023-05-16T01:02:45;12.50;94.90
47779;DHT22;33538;48.432;11.350;2023-05-16T01:05:12;12.40;94.80
47779;DHT22;33538;48.432;11.350;2023-05-16T01:07:39;12.30;94.80
47779;DHT22;33538;48.432;11.350;2023-05-16T01:10:07;12.30;94.90
47779;DHT22;33538;48.432;11.350;2023-05-16T01:12:37;12.30;95.20
47779;DHT22;33538;48.432;11.350;2023-05-16T01:15:08;12.30;95.50
47779;DHT22;33538;48.432;11.350;2023-05-16T01:17:44;12.20;95.20
47779;DHT22;33538;48.432;11.350;2023-05-16T01:20:24;12.30;95.50
47779;DHT22;33538;48.432;11.350;2023-05-16T01:23:04;12.30;95.50
47779;DHT22;33538;48.432;11.350;2023-05-16T01:25:43;12.30;95.00
47779;DHT22;33538;48.432;11.350;2023-05-16T01:28:15;12.30;95.20
47779;DHT22;33538;48.432;11.350;2023-05-16T01:30:42;12.30;94.70
47779;DHT22;33538;48.432;11.350;2023-05-16T01:33:09;12.20;94.50
47779;DHT22;33538;48.432;11.350;2023-05-16T01:35:39;12.20;94.70
47779;DHT22;33538;48.432;11.350;2023-05-16T01:38:11;12.20;94.80
47779;DHT22;33538;48.432;11.350;2023-05-16T01:40:47;12.20;94.80
47779;DHT22;33538;48.432;11.350;2023-05-16T01:43:22;12.10;94.40
47779;DHT22;33538;48.432;11.350;2023-05-16T01:45:56;12.10;94.40
47779;DHT22;33538;48.432;11.350;2023-05-16T01:48:29;12.10;94.40
47779;DHT22;33538;48.432;11.350;2023-05-16T01:50:56;12.10;94.40
47779;DHT22;33538;48.432;11.350;2023-05-16T01:53:28;12.10;94.40
47779;DHT22;33538;48.432;11.350;2023-05-16T01:55:59;12.10;94.40
47779;DHT22;33538;48.432;11.350;2023-05-16T01:58:30;12.10;94.60
47779;DHT22;33538;48.432;11.350;2023-05-16T02:01:00;12.10;94.40
47779;DHT22;33538;48.432;11.350;2023-05-16T02:03:27;12.10;94.20
47779;DHT22;33538;48.432;11.350;2023-05-16T02:05:54;12.10;94.30
47779;DHT22;33538;48.432;11.350;2023-05-16T02:08:21;12.10;94.50
47779;DHT22;33538;48.432;11.350;2023-05-16T02:10:48;12.10;94.40
47779;DHT22;33538;48.432;11.350;2023-05-16T02:13:15;12.10;94.30
47779;DHT22;33538;48.432;11.350;2023-05-16T02:15:43;12.00;94.30
47779;DHT22;33538;48.432;11.350;2023-05-16T02:18:10;12.10;94.30
47779;DHT22;33538;48.432;11.350;2023-05-16T02:20:37;12.00;94.20
47779;DHT22;33538;48.432;11.350;2023-05-16T02:23:04;12.10;94.30
47779;DHT22;33538;48.432;11.350;2023-05-16T02:25:30;12.10;93.90
47779;DHT22;33538;48.432;11.350;2023-05-16T02:27:57;12.10;93.70
47779;DHT22;33538;48.432;11.350;2023-05-16T02:30:24;12.10;93.70
47779;DHT22;33538;48.432;11.350;2023-05-16T02:32:52;12.10;93.90
47779;DHT22;33538;48.432;11.350;2023-05-16T02:35:19;12.00;94.20
47779;DHT22;33538;48.432;11.350;2023-05-16T02:37:46;12.10;94.40
47779;DHT22;33538;48.432;11.350;2023-05-16T02:40:13;12.10;94.30
47779;DHT22;33538;48.432;11.350;2023-05-16T02:42:39;12.10;94.30
47779;DHT22;33538;48.432;11.350;2023-05-16T02:45:07;12.10;94.50
47779;DHT22;33538;48.432;11.350;2023-05-16T02:47:34;12.00;94.80
47779;DHT22;33538;48.432;11.350;2023-05-16T02:50:02;12.00;95.40
47779;DHT22;33538;48.432;11.350;2023-05-16T02:52:29;12.00;95.50
47779;DHT22;33538;48.432;11.350;2023-05-16T02:54:56;11.90;95.30
47779;DHT22;33538;48.432;11.350;2023-05-16T02:57:42;12.00;94.80
47779;DHT22;33538;48.432;11.350;2023-05-16T03:00:10;12.00;94.90
47779;DHT22;33538;48.432;11.350;2023-05-16T03:02:37;12.00;94.70
47779;DHT22;33538;48.432;11.350;2023-05-16T03:05:06;12.00;95.20
47779;DHT22;33538;48.432;11.350;2023-05-16T03:07:33;12.00;95.60
47779;DHT22;33538;48.432;11.350;2023-05-16T03:10:00;12.00;95.50
47779;DHT22;33538;48.432;11.350;2023-05-16T03:12:27;12.00;95.10
47779;DHT22;33538;48.432;11.350;2023-05-16T03:14:54;12.00;95.20
47779;DHT22;33538;48.432;11.350;2023-05-16T03:17:20;12.00;95.40
47779;DHT22;33538;48.432;11.350;2023-05-16T03:19:47;12.00;95.80
47779;DHT22;33538;48.432;11.350;2023-05-16T03:22:15;12.00;95.40
47779;DHT22;33538;48.432;11.350;2023-05-16T03:24:42;11.90;95.50
47779;DHT22;33538;48.432;11.350;2023-05-16T03:27:09;12.00;95.40
47779;DHT22;33538;48.432;11.350;2023-05-16T03:29:36;12.00;95.50
47779;DHT22;33538;48.432;11.350;2023-05-16T03:32:03;12.00;96.10
47779;DHT22;33538;48.432;11.350;2023-05-16T03:34:30;11.90;96.10
47779;DHT22;33538;48.432;11.350;2023-05-16T03:36:57;11.90;96.20
47779;DHT22;33538;48.432;11.350;2023-05-16T03:39:25;11.90;96.50
47779;DHT22;33538;48.432;11.350;2023-05-16T03:41:52;11.90;96.30
47779;DHT22;33538;48.432;11.350;2023-05-16T03:44:19;11.90;96.10
47779;DHT22;33538;48.432;11.350;2023-05-16T03:46:45;11.90;96.60
47779;DHT22;33538;48.432;11.350;2023-05-16T03:49:12;12.00;96.40
47779;DHT22;33538;48.432;11.350;2023-05-16T03:51:39;12.00;96.40
47779;DHT22;33538;48.432;11.350;2023-05-16T03:54:05;12.00;96.30
47779;DHT22;33538;48.432;11.350;2023-05-16T03:56:34;12.00;96.70
47779;DHT22;33538;48.432;11.350;2023-05-16T03:59:00;12.00;96.60
47779;DHT22;33538;48.432;11.350;2023-05-16T04:01:27;12.00;96.10
47779;DHT22;33538;48.432;11.350;2023-05-16T04:03:54;12.00;96.40
47779;DHT22;33538;48.432;11.350;2023-05-16T04:06:21;11.90;96.90
47779;DHT22;33538;48.432;11.350;2023-05-16T04:08:47;12.00;96.70
47779;DHT22;33538;48.432;11.350;2023-05-16T04:11:14;11.90;97.20
47779;DHT22;33538;48.432;11.350;2023-05-16T04:13:42;11.90;96.60
47779;DHT22;33538;48.432;11.350;2023-05-16T04:16:09;11.90;97.00
47779;DHT22;33538;48.432;11.350;2023-05-16T04:18:36;11.90;97.20
47779;DHT22;33538;48.432;11.350;2023-05-16T04:21:03;11.90;97.60
47779;DHT22;33538;48.432;11.350;2023-05-16T04:23:30;11.90;97.70
47779;DHT22;33538;48.432;11.350;2023-05-16T04:25:57;11.90;97.70
47779;DHT22;33538;48.432;11.350;2023-05-16T04:28:24;11.90;97.90
47779;DHT22;33538;48.432;11.350;2023-05-16T04:30:52;11.90;98.30
47779;DHT22;33538;48.432;11.350;2023-05-16T04:33:19;11.90;98.30
47779;DHT22;33538;48.432;11.350;2023-05-16T04:35:46;11.80;98.60
47779;DHT22;33538;48.432;11.350;2023-05-16T04:38:13;11.80;98.70
47779;DHT22;33538;48.432;11.350;2023-05-16T04:40:39;11.80;98.90
47779;DHT22;33538;48.432;11.350;2023-05-16T04:43:06;11.80;99.20
47779;DHT22;33538;48.432;11.350;2023-05-16T04:45:33;11.80;99.20
47779;DHT22;33538;48.432;11.350;2023-05-16T04:48:05;11.80;98.70
47779;DHT22;33538;48.432;11.350;2023-05-16T04:50:32;11.80;99.30
47779;DHT22;33538;48.432;11.350;2023-05-16T04:52:59;11.80;99.30
47779;DHT22;33538;48.432;11.350;2023-05-16T04:55:25;11.80;99.40
47779;DHT22;33538;48.432;11.350;2023-05-16T04:57:53;11.80;99.90
47779;DHT22;33538;48.432;11.350;2023-05-16T05:00:20;11.90;99.70
47779;DHT22;33538;48.432;11.350;2023-05-16T05:02:47;11.80;99.70
47779;DHT22;33538;48.432;11.350;2023-05-16T05:05:15;11.80;99.50
47779;DHT22;33538;48.432;11.350;2023-05-16T05:07:42;11.90;99.90
47779;DHT22;33538;48.432;11.350;2023-05-16T05:10:09;11.90;99.90
47779;DHT22;33538;48.432;11.350;2023-05-16T05:12:36;11.90;99.70
47779;DHT22;33538;48.432;11.350;2023-05-16T05:15:04;11.90;99.90
47779;DHT22;33538;48.432;11.350;2023-05-16T05:17:31;11.90;99.90
47779;DHT22;33538;48.432;11.350;2023-05-16T05:19:58;11.90;99.90
47779;DHT22;33538;48.432;11.350;2023-05-16T05:22:29;11.90;99.90
47779;DHT22;33538;48.432;11.350;2023-05-16T05:24:56;11.90;99.90
47779;DHT22;33538;48.432;11.350;2023-05-16T05:27:23;11.90;99.90
47779;DHT22;33538;48.432;11.350;2023-05-16T05:29:50;11.90;99.90
47779;DHT22;33538;48.432;11.350;2023-05-16T05:32:16;12.00;99.90
47779;DHT22;33538;48.432;11.350;2023-05-16T05:34:43;12.00;99.90
47779;DHT22;33538;48.432;11.350;2023-05-16T05:37:10;12.00;99.90
47779;DHT22;33538;48.432;11.350;2023-05-16T05:39:38;12.00;99.90
47779;DHT22;33538;48.432;11.350;2023-05-16T05:42:05;12.00;99.90
47779;DHT22;33538;48.432;11.350;2023-05-16T05:44:32;12.00;99.90
47779;DHT22;33538;48.432;11.350;2023-05-16T05:46:59;12.00;99.90
47779;DHT22;33538;48.432;11.350;2023-05-16T05:49:26;12.00;99.90
47779;DHT22;33538;48.432;11.350;2023-05-16T05:51:53;12.00;99.90
47779;DHT22;33538;48.432;11.350;2023-05-16T05:54:19;12.00;99.90
47779;DHT22;33538;48.432;11.350;2023-05-16T05:56:48;12.00;99.90
47779;DHT22;33538;48.432;11.350;2023-05-16T05:59:14;12.10;99.90
47779;DHT22;33538;48.432;11.350;2023-05-16T06:01:41;12.10;99.90
47779;DHT22;33538;48.432;11.350;2023-05-16T06:04:08;12.10;99.90
47779;DHT22;33538;48.432;11.350;2023-05-16T06:06:36;12.10;99.90
47779;DHT22;33538;48.432;11.350;2023-05-16T06:09:03;12.10;99.90
47779;DHT22;33538;48.432;11.350;2023-05-16T06:11:29;12.10;99.90
47779;DHT22;33538;48.432;11.350;2023-05-16T06:13:57;12.10;99.90
47779;DHT22;33538;48.432;11.350;2023-05-16T06:16:25;12.20;99.90
47779;DHT22;33538;48.432;11.350;2023-05-16T06:18:52;12.10;99.90
47779;DHT22;33538;48.432;11.350;2023-05-16T06:21:18;12.20;99.90
47779;DHT22;33538;48.432;11.350;2023-05-16T06:23:45;12.20;99.90
47779;DHT22;33538;48.432;11.350;2023-05-16T06:26:12;12.20;99.90
47779;DHT22;33538;48.432;11.350;2023-05-16T06:28:39;12.20;99.90
47779;DHT22;33538;48.432;11.350;2023-05-16T06:31:07;12.20;99.90
47779;DHT22;33538;48.432;11.350;2023-05-16T06:33:34;12.30;99.90
47779;DHT22;33538;48.432;11.350;2023-05-16T06:36:00;12.30;99.90
47779;DHT22;33538;48.432;11.350;2023-05-16T06:38:27;12.30;99.90
47779;DHT22;33538;48.432;11.350;2023-05-16T06:40:54;12.20;99.90
47779;DHT22;33538;48.432;11.350;2023-05-16T06:43:21;12.30;99.90
47779;DHT22;33538;48.432;11.350;2023-05-16T06:45:48;12.30;99.90
47779;DHT22;33538;48.432;11.350;2023-05-16T06:48:17;12.30;99.90
47779;DHT22;33538;48.432;11.350;2023-05-16T06:50:46;12.30;99.90
47779;DHT22;33538;48.432;11.350;2023-05-16T06:53:13;12.30;99.90
47779;DHT22;33538;48.432;11.350;2023-05-16T06:55:40;12.30;99.90
47779;DHT22;33538;48.432;11.350;2023-05-16T06:58:07;12.40;99.90
47779;DHT22;33538;48.432;11.350;2023-05-16T07:00:33;12.40;99.90
47779;DHT22;33538;48.432;11.350;2023-05-16T07:03:03;12.40;99.90
47779;DHT22;33538;48.432;11.350;2023-05-16T07:05:31;12.40;99.90
47779;DHT22;33538;48.432;11.350;2023-05-16T07:07:58;12.40;99.90
47779;DHT22;33538;48.432;11.350;2023-05-16T07:10:25;12.50;99.90
47779;DHT22;33538;48.432;11.350;2023-05-16T07:12:52;12.40;99.90
47779;DHT22;33538;48.432;11.350;2023-05-16T07:15:19;12.40;99.90
47779;DHT22;33538;48.432;11.350;2023-05-16T07:17:45;12.50;99.80
47779;DHT22;33538;48.432;11.350;2023-05-16T07:20:12;12.50;99.50
47779;DHT22;33538;48.432;11.350;2023-05-16T07:22:40;12.50;99.60
47779;DHT22;33538;48.432;11.350;2023-05-16T07:25:08;12.50;99.40
47779;DHT22;33538;48.432;11.350;2023-05-16T07:27:34;12.50;99.60
47779;DHT22;33538;48.432;11.350;2023-05-16T07:30:03;12.50;99.20
47779;DHT22;33538;48.432;11.350;2023-05-16T07:32:31;12.60;99.00
47779;DHT22;33538;48.432;11.350;2023-05-16T07:35:00;12.50;99.10
47779;DHT22;33538;48.432;11.350;2023-05-16T07:37:28;12.60;98.90
47779;DHT22;33538;48.432;11.350;2023-05-16T07:40:01;12.60;99.10
47779;DHT22;33538;48.432;11.350;2023-05-16T07:42:28;12.60;98.90
47779;DHT22;33538;48.432;11.350;2023-05-16T07:44:55;12.60;98.90
47779;DHT22;33538;48.432;11.350;2023-05-16T07:47:21;12.60;98.80
47779;DHT22;33538;48.432;11.350;2023-05-16T07:49:48;12.60;99.10
47779;DHT22;33538;48.432;11.350;2023-05-16T07:52:15;12.60;98.80
47779;DHT22;33538;48.432;11.350;2023-05-16T07:54:42;12.60;99.40
47779;DHT22;33538;48.432;11.350;2023-05-16T07:57:12;12.60;98.80
47779;DHT22;33538;48.432;11.350;2023-05-16T07:59:39;12.70;98.80
47779;DHT22;33538;48.432;11.350;2023-05-16T08:02:06;12.70;98.90
47779;DHT22;33538;48.432;11.350;2023-05-16T08:04:33;12.70;98.60
47779;DHT22;33538;48.432;11.350;2023-05-16T08:07:00;12.70;98.40
47779;DHT22;33538;48.432;11.350;2023-05-16T08:09:27;12.70;98.50
47779;DHT22;33538;48.432;11.350;2023-05-16T08:11:54;12.70;98.70
47779;DHT22;33538;48.432;11.350;2023-05-16T08:14:22;12.70;98.60
47779;DHT22;33538;48.432;11.350;2023-05-16T08:16:49;12.70;98.80
47779;DHT22;33538;48.432;11.350;2023-05-16T08:19:16;12.70;99.00
47779;DHT22;33538;48.432;11.350;2023-05-16T08:21:43;12.70;98.70
47779;DHT22;33538;48.432;11.350;2023-05-16T08:24:09;12.70;98.80
47779;DHT22;33538;48.432;11.350;2023-05-16T08:26:36;12.70;98.40
47779;DHT22;33538;48.432;11.350;2023-05-16T08:29:03;12.70;98.30
47779;DHT22;33538;48.432;11.350;2023-05-16T08:31:31;12.70;98.30
47779;DHT22;33538;48.432;11.350;2023-05-16T08:33:58;12.80;98.30
47779;DHT22;33538;48.432;11.350;2023-05-16T08:36:25;12.80;98.70
47779;DHT22;33538;48.432;11.350;2023-05-16T08:38:51;12.80;98.60
47779;DHT22;33538;48.432;11.350;2023-05-16T08:41:18;12.80;98.60
47779;DHT22;33538;48.432;11.350;2023-05-16T08:43:45;12.80;99.90
47779;DHT22;33538;48.432;11.350;2023-05-16T08:46:12;12.80;99.40
47779;DHT22;33538;48.432;11.350;2023-05-16T08:48:42;12.80;99.10
47779;DHT22;33538;48.432;11.350;2023-05-16T08:51:12;12.80;99.40
47779;DHT22;33538;48.432;11.350;2023-05-16T08:53:44;12.80;99.20
47779;DHT22;33538;48.432;11.350;2023-05-16T08:56:12;12.80;99.40
47779;DHT22;33538;48.432;11.350;2023-05-16T08:58:40;12.80;99.80
47779;DHT22;33538;48.432;11.350;2023-05-16T09:01:07;12.80;99.80
47779;DHT22;33538;48.432;11.350;2023-05-16T09:03:35;12.80;99.90
47779;DHT22;33538;48.432;11.350;2023-05-16T09:06:05;12.80;99.80
47779;DHT22;33538;48.432;11.350;2023-05-16T09:08:34;12.80;99.70
47779;DHT22;33538;48.432;11.350;2023-05-16T09:11:01;12.80;99.80
47779;DHT22;33538;48.432;11.350;2023-05-16T09:13:28;12.80;99.60
47779;DHT22;33538;48.432;11.350;2023-05-16T09:16:08;12.80;99.70
47779;DHT22;33538;48.432;11.350;2023-05-16T09:18:35;12.80;99.80
47779;DHT22;33538;48.432;11.350;2023-05-16T09:21:02;12.80;99.90
47779;DHT22;33538;48.432;11.350;2023-05-16T09:23:30;12.80;99.90
47779;DHT22;33538;48.432;11.350;2023-05-16T09:26:01;12.80;99.90
47779;DHT22;33538;48.432;11.350;2023-05-16T09:28:28;12.90;99.90
47779;DHT22;33538;48.432;11.350;2023-05-16T09:30:55;12.80;99.90
47779;DHT22;33538;48.432;11.350;2023-05-16T09:33:22;12.90;99.90
47779;DHT22;33538;48.432;11.350;2023-05-16T09:35:54;12.80;99.90
47779;DHT22;33538;48.432;11.350;2023-05-16T09:38:21;12.90;99.90
47779;DHT22;33538;48.432;11.350;2023-05-16T09:40:49;12.90;99.90
47779;DHT22;33538;48.432;11.350;2023-05-16T09:43:17;12.90;99.90
47779;DHT22;33538;48.432;11.350;2023-05-16T09:45:47;12.90;99.90
47779;DHT22;33538;48.432;11.350;2023-05-16T09:48:15;12.90;99.90
47779;DHT22;33538;48.432;11.350;2023-05-16T09:50:46;12.90;99.90
47779;DHT22;33538;48.432;11.350;2023-05-16T09:53:13;12.90;99.90
47779;DHT22;33538;48.432;11.350;2023-05-16T09:55:40;12.90;99.90
47779;DHT22;33538;48.432;11.350;2023-05-16T09:58:08;12.90;99.90
47779;DHT22;33538;48.432;11.350;2023-05-16T10:00:36;12.90;99.90
47779;DHT22;33538;48.432;11.350;2023-05-16T10:03:03;13.00;99.90
47779;DHT22;33538;48.432;11.350;2023-05-16T10:05:32;13.00;99.90
47779;DHT22;33538;48.432;11.350;2023-05-16T10:08:01;13.00;99.90
47779;DHT22;33538;48.432;11.350;2023-05-16T10:10:29;13.00;99.90
47779;DHT22;33538;48.432;11.350;2023-05-16T10:12:57;13.00;99.90
47779;DHT22;33538;48.432;11.350;2023-05-16T10:15:26;13.00;99.90
47779;DHT22;33538;48.432;11.350;2023-05-16T10:17:55;13.00;99.90
47779;DHT22;33538;48.432;11.350;2023-05-16T10:20:23;13.00;99.90
47779;DHT22;33538;48.432;11.350;2023-05-16T10:22:52;13.00;99.90
47779;DHT22;33538;48.432;11.350;2023-05-16T10:25:26;13.00;99.90
47779;DHT22;33538;48.432;11.350;2023-05-16T10:27:55;13.00;99.90
47779;DHT22;33538;48.432;11.350;2023-05-16T10:30:22;13.00;99.90
47779;DHT22;33538;48.432;11.350;2023-05-16T10:32:51;13.00;99.90
47779;DHT22;33538;48.432;11.350;2023-05-16T10:35:19;13.00;99.90
47779;DHT22;33538;48.432;11.350;2023-05-16T10:37:47;13.00;99.90
47779;DHT22;33538;48.432;11.350;2023-05-16T10:40:15;13.00;99.90
47779;DHT22;33538;48.432;11.350;2023-05-16T10:42:44;13.00;99.90
47779;DHT22;33538;48.432;11.350;2023-05-16T10:45:20;13.00;99.90
47779;DHT22;33538;48.432;11.350;2023-05-16T10:47:52;13.00;99.90
47779;DHT22;33538;48.432;11.350;2023-05-16T10:50:36;13.00;99.90
47779;DHT22;33538;48.432;11.350;2023-05-16T10:53:18;13.00;99.90
47779;DHT22;33538;48.432;11.350;2023-05-16T10:55:50;13.00;99.90
47779;DHT22;33538;48.432;11.350;2023-05-16T10:58:42;13.10;99.90
47779;DHT22;33538;48.432;11.350;2023-05-16T11:01:22;13.10;99.90
47779;DHT22;33538;48.432;11.350;2023-05-16T11:04:06;13.10;99.90
47779;DHT22;33538;48.432;11.350;2023-05-16T11:06:34;13.00;99.90
47779;DHT22;33538;48.432;11.350;2023-05-16T11:09:05;13.10;99.90
47779;DHT22;33538;48.432;11.350;2023-05-16T11:11:40;13.10;99.90
47779;DHT22;33538;48.432;11.350;2023-05-16T11:14:07;13.10;99.90
47779;DHT22;33538;48.432;11.350;2023-05-16T11:16:35;13.10;99.90
47779;DHT22;33538;48.432;11.350;2023-05-16T11:19:07;13.10;99.90
47779;DHT22;33538;48.432;11.350;2023-05-16T11:22:05;13.10;99.90
47779;DHT22;33538;48.432;11.350;2023-05-16T11:24:33;13.10;99.90
47779;DHT22;33538;48.432;11.350;2023-05-16T11:27:00;13.10;99.90
47779;DHT22;33538;48.432;11.350;2023-05-16T11:29:28;13.10;99.90
47779;DHT22;33538;48.432;11.350;2023-05-16T11:31:57;13.10;99.90
47779;DHT22;33538;48.432;11.350;2023-05-16T11:34:26;13.10;99.90
47779;DHT22;33538;48.432;11.350;2023-05-16T11:36:53;13.10;99.90
47779;DHT22;33538;48.432;11.350;2023-05-16T11:39:19;13.10;99.90
47779;DHT22;33538;48.432;11.350;2023-05-16T11:41:46;13.20;99.90
47779;DHT22;33538;48.432;11.350;2023-05-16T11:44:14;13.20;99.90
47779;DHT22;33538;48.432;11.350;2023-05-16T11:46:41;13.20;99.90
47779;DHT22;33538;48.432;11.350;2023-05-16T11:49:08;13.20;99.90
47779;DHT22;33538;48.432;11.350;2023-05-16T11:51:38;13.20;99.90
47779;DHT22;33538;48.432;11.350;2023-05-16T11:54:05;13.20;99.90
47779;DHT22;33538;48.432;11.350;2023-05-16T11:56:34;13.20;99.90
47779;DHT22;33538;48.432;11.350;2023-05-16T11:59:01;13.20;99.90
47779;DHT22;33538;48.432;11.350;2023-05-16T12:01:33;13.30;99.90
47779;DHT22;33538;48.432;11.350;2023-05-16T12:04:00;13.40;99.90
47779;DHT22;33538;48.432;11.350;2023-05-16T12:06:27;13.40;99.90
47779;DHT22;33538;48.432;11.350;2023-05-16T12:08:55;13.40;99.90
47779;DHT22;33538;48.432;11.350;2023-05-16T12:11:22;13.40;99.90
47779;DHT22;33538;48.432;11.350;2023-05-16T12:13:49;13.40;99.90
47779;DHT22;33538;48.432;11.350;2023-05-16T12:16:16;13.40;99.90
47779;DHT22;33538;48.432;11.350;2023-05-16T12:18:44;13.40;99.90
47779;DHT22;33538;48.432;11.350;2023-05-16T12:21:11;13.40;99.90
47779;DHT22;33538;48.432;11.350;2023-05-16T12:23:41;13.40;99.90
47779;DHT22;33538;48.432;11.350;2023-05-16T12:26:09;13.40;99.90
47779;DHT22;33538;48.432;11.350;2023-05-16T12:28:36;13.40;99.90
47779;DHT22;33538;48.432;11.350;2023-05-16T12:31:03;13.50;99.90
47779;DHT22;33538;48.432;11.350;2023-05-16T12:33:55;13.50;99.90
47779;DHT22;33538;48.432;11.350;2023-05-16T12:36:23;13.40;99.90
47779;DHT22;33538;48.432;11.350;2023-05-16T12:38:51;13.40;99.90
47779;DHT22;33538;48.432;11.350;2023-05-16T12:41:21;13.40;99.90
47779;DHT22;33538;48.432;11.350;2023-05-16T12:43:48;13.40;99.90
47779;DHT22;33538;48.432;11.350;2023-05-16T12:46:15;13.40;99.90
47779;DHT22;33538;48.432;11.350;2023-05-16T12:48:42;13.40;99.90
47779;DHT22;33538;48.432;11.350;2023-05-16T12:51:13;13.40;99.90
47779;DHT22;33538;48.432;11.350;2023-05-16T12:53:41;13.30;99.90
47779;DHT22;33538;48.432;11.350;2023-05-16T12:56:08;13.30;99.90
47779;DHT22;33538;48.432;11.350;2023-05-16T12:58:36;13.30;99.90
47779;DHT22;33538;48.432;11.350;2023-05-16T13:01:06;13.30;99.90
47779;DHT22;33538;48.432;11.350;2023-05-16T13:03:34;13.30;99.90
47779;DHT22;33538;48.432;11.350;2023-05-16T13:06:02;13.30;99.90
47779;DHT22;33538;48.432;11.350;2023-05-16T13:08:29;13.30;99.90
47779;DHT22;33538;48.432;11.350;2023-05-16T13:10:57;13.30;99.90
47779;DHT22;33538;48.432;11.350;2023-05-16T13:13:23;13.30;99.90
47779;DHT22;33538;48.432;11.350;2023-05-16T13:16:03;13.30;99.90
47779;DHT22;33538;48.432;11.350;2023-05-16T13:18:30;13.30;99.90
47779;DHT22;33538;48.432;11.350;2023-05-16T13:20:57;13.30;99.90
47779;DHT22;33538;48.432;11.350;2023-05-16T13:23:24;13.30;99.90
47779;DHT22;33538;48.432;11.350;2023-05-16T13:25:51;13.30;99.90
47779;DHT22;33538;48.432;11.350;2023-05-16T13:28:18;13.30;99.90
47779;DHT22;33538;48.432;11.350;2023-05-16T13:30:45;13.30;99.90
47779;DHT22;33538;48.432;11.350;2023-05-16T13:33:13;13.20;99.90
47779;DHT22;33538;48.432;11.350;2023-05-16T13:35:40;13.20;99.90
47779;DHT22;33538;48.432;11.350;2023-05-16T13:38:09;13.20;99.90
47779;DHT22;33538;48.432;11.350;2023-05-16T13:40:35;13.20;99.90
47779;DHT22;33538;48.432;11.350;2023-05-16T13:43:02;13.20;99.90
47779;DHT22;33538;48.432;11.350;2023-05-16T13:45:29;13.20;99.90
47779;DHT22;33538;48.432;11.350;2023-05-16T13:47:56;13.10;99.90
47779;DHT22;33538;48.432;11.350;2023-05-16T13:50:24;13.10;99.90
47779;DHT22;33538;48.432;11.350;2023-05-16T13:52:58;13.10;99.90
47779;DHT22;33538;48.432;11.350;2023-05-16T13:55:24;13.10;99.90
47779;DHT22;33538;48.432;11.350;2023-05-16T13:57:52;13.10;99.90
47779;DHT22;33538;48.432;11.350;2023-05-16T14:00:18;13.10;99.90
47779;DHT22;33538;48.432;11.350;2023-05-16T14:03:05;13.10;99.90
47779;DHT22;33538;48.432;11.350;2023-05-16T14:05:34;13.00;99.90
47779;DHT22;33538;48.432;11.350;2023-05-16T14:08:00;13.00;99.90
47779;DHT22;33538;48.432;11.350;2023-05-16T14:10:27;13.00;99.90
47779;DHT22;33538;48.432;11.350;2023-05-16T14:12:54;13.00;99.90
47779;DHT22;33538;48.432;11.350;2023-05-16T14:15:21;12.90;99.90
47779;DHT22;33538;48.432;11.350;2023-05-16T14:17:48;12.90;99.90
47779;DHT22;33538;48.432;11.350;2023-05-16T14:20:15;12.90;99.90
47779;DHT22;33538;48.432;11.350;2023-05-16T14:22:43;12.90;99.90
47779;DHT22;33538;48.432;11.350;2023-05-16T14:25:10;12.90;99.90
47779;DHT22;33538;48.432;11.350;2023-05-16T14:27:37;12.90;99.90
47779;DHT22;33538;48.432;11.350;2023-05-16T14:30:05;12.80;99.90
47779;DHT22;33538;48.432;11.350;2023-05-16T14:32:32;12.80;99.90
47779;DHT22;33538;48.432;11.350;2023-05-16T14:34:59;12.80;99.90
47779;DHT22;33538;48.432;11.350;2023-05-16T14:37:26;12.80;99.90
47779;DHT22;33538;48.432;11.350;2023-05-16T14:39:54;12.80;99.90
47779;DHT22;33538;48.432;11.350;2023-05-16T14:42:20;12.90;99.90
47779;DHT22;33538;48.432;11.350;2023-05-16T14:44:47;12.80;99.90
47779;DHT22;33538;48.432;11.350;2023-05-16T14:47:14;12.90;99.90
47779;DHT22;33538;48.432;11.350;2023-05-16T14:49:41;12.90;99.90
47779;DHT22;33538;48.432;11.350;2023-05-16T14:52:08;12.90;99.90
47779;DHT22;33538;48.432;11.350;2023-05-16T14:54:35;12.90;99.90
47779;DHT22;33538;48.432;11.350;2023-05-16T14:57:03;12.90;99.90
47779;DHT22;33538;48.432;11.350;2023-05-16T14:59:30;12.90;99.90
47779;DHT22;33538;48.432;11.350;2023-05-16T15:01:57;12.90;99.90
47779;DHT22;33538;48.432;11.350;2023-05-16T15:04:24;12.90;99.90
47779;DHT22;33538;48.432;11.350;2023-05-16T15:06:50;12.90;99.90
47779;DHT22;33538;48.432;11.350;2023-05-16T15:09:17;12.90;99.90
47779;DHT22;33538;48.432;11.350;2023-05-16T15:11:44;12.90;99.90
47779;DHT22;33538;48.432;11.350;2023-05-16T15:14:12;13.00;99.90
47779;DHT22;33538;48.432;11.350;2023-05-16T15:16:39;13.00;99.90
47779;DHT22;33538;48.432;11.350;2023-05-16T15:19:06;13.00;99.90
47779;DHT22;33538;48.432;11.350;2023-05-16T15:21:33;12.90;99.90